| time (UTC) | temp F | wind direction | speed knots | gust knots | rain 1hr in | rain 24hr in | rain mn in | humidity % | barometer mb |
| 20260903074547 | 78 | 0 | 0.0 | 0.9 | 0.00 | 0.00 | 0.00 | 72 | 1015.8 |
| 20260903073057 | 78 | 131 | 0.0 | 0.9 | 0.00 | 0.00 | 0.00 | 73 | 1015.8 |
| 20260903071553 | 78 | 0 | 0.0 | 0.0 | 0.00 | 0.00 | 0.00 | 72 | 1015.9 |
| 20260903070047 | 78 | 0 | 0.0 | 0.9 | 0.00 | 0.00 | 0.00 | 71 | 1015.9 |
| 20260903064545 | 79 | 0 | 0.0 | 0.9 | 0.00 | 0.00 | 0.00 | 70 | 1015.7 |
| 20260903063052 | 79 | 0 | 0.0 | 0.9 | 0.00 | 0.00 | 0.00 | 69 | 1015.7 |
| 20260903061550 | 80 | 0 | 0.0 | 0.0 | 0.00 | 0.00 | 0.00 | 68 | 1015.5 |
| 20260903060047 | 80 | 0 | 0.0 | 0.0 | 0.00 | 0.00 | 0.00 | 68 | 1015.6 |
| 20260903054553 | 81 | 162 | 0.0 | 1.7 | 0.00 | 0.00 | 0.00 | 67 | 1015.4 |
| 20260903053046 | 81 | 0 | 0.0 | 0.0 | 0.00 | 0.00 | 0.00 | 66 | 1015.4 |
| 20260903051551 | 81 | 0 | 0.0 | 0.9 | 0.00 | 0.00 | 0.00 | 66 | 1015.7 |
| 20260903050055 | 81 | 0 | 0.0 | 0.9 | 0.00 | 0.00 | 0.00 | 66 | 1015.6 |
| 20260903044550 | 82 | 0 | 0.0 | 0.9 | 0.00 | 0.00 | 0.00 | 65 | 1015.6 |
| 20260903043047 | 82 | 0 | 0.0 | 0.9 | 0.00 | 0.00 | 0.00 | 65 | 1015.6 |
| 20260903041554 | 82 | 145 | 0.0 | 0.9 | 0.00 | 0.00 | 0.00 | 64 | 1015.6 |
| 20260903040053 | 81 | 0 | 0.0 | 0.9 | 0.00 | 0.00 | 0.00 | 64 | 1015.6 |
| 20260903034548 | 82 | 0 | 0.0 | 0.9 | 0.00 | 0.00 | 0.00 | 62 | 1015.7 |
| 20260903033055 | 82 | 0 | 0.0 | 0.0 | 0.00 | 0.00 | 0.00 | 61 | 1015.7 |
| 20260903031557 | 83 | 0 | 0.0 | 0.0 | 0.00 | 0.00 | 0.00 | 59 | 1015.6 |
| 20260903030047 | 84 | 144 | 0.0 | 0.9 | 0.00 | 0.00 | 0.00 | 58 | 1015.5 |
| 20260903024548 | 84 | 0 | 0.0 | 0.0 | 0.00 | 0.00 | 0.00 | 57 | 1015.3 |
| 20260903023102 | 84 | 0 | 0.0 | 0.0 | 0.00 | 0.00 | 0.00 | 57 | 1015.0 |
| 20260903021549 | 84 | 0 | 0.0 | 0.0 | 0.00 | 0.00 | 0.00 | 57 | 1014.7 |
| 20260903020050 | 85 | 0 | 0.0 | 0.0 | 0.00 | 0.00 | 0.00 | 57 | 1014.5 |
| 20260903014549 | 85 | 0 | 0.0 | 0.0 | 0.00 | 0.00 | 0.00 | 55 | 1014.4 |
| 20260903013057 | 86 | 0 | 0.0 | 0.0 | 0.00 | 0.00 | 0.00 | 54 | 1014.1 |
| 20260903011544 | 87 | 0 | 0.0 | 0.0 | 0.00 | 0.00 | 0.00 | 53 | 1014.1 |
| 20260903010051 | 89 | 0 | 0.0 | 0.0 | 0.00 | 0.00 | 0.00 | 50 | 1014.0 |
| 20260903004546 | 91 | 0 | 0.0 | 0.0 | 0.00 | 0.00 | 0.00 | 46 | 1013.9 |
| 20260903003055 | 93 | 0 | 0.0 | 0.0 | 0.00 | 0.00 | 0.00 | 44 | 1013.9 |
| 20260903001549 | 94 | 0 | 0.0 | 0.0 | 0.00 | 0.00 | 0.00 | 43 | 1013.9 |
| 20260903000056 | 95 | 199 | 0.0 | 0.9 | 0.00 | 0.00 | 0.00 | 41 | 1013.9 |
| 20260902234555 | 96 | 0 | 0.0 | 2.6 | 0.00 | 0.00 | 0.00 | 40 | 1013.9 |
| 20260902233052 | 97 | 0 | 0.0 | 3.5 | 0.00 | 0.00 | 0.00 | 39 | 1013.9 |
| 20260902231558 | 98 | 173 | 0.0 | 3.5 | 0.00 | 0.00 | 0.00 | 37 | 1014.0 |
| 20260902230105 | 99 | 141 | 0.9 | 3.5 | 0.00 | 0.00 | 0.00 | 35 | 1014.1 |
| 20260902224552 | 101 | 194 | 0.9 | 4.3 | 0.00 | 0.00 | 0.00 | 34 | 1014.3 |
| 20260902223046 | 102 | 196 | 0.9 | 4.3 | 0.00 | 0.00 | 0.00 | 33 | 1014.3 |
| 20260902221553 | 104 | 94 | 0.0 | 1.7 | 0.00 | 0.00 | 0.00 | 33 | 1014.3 |
| 20260902220052 | 104 | 128 | 0.0 | 1.7 | 0.00 | 0.00 | 0.00 | 33 | 1014.3 |
| 20260902214548 | 103 | 0 | 0.0 | 1.7 | 0.00 | 0.00 | 0.00 | 34 | 1014.6 |
| 20260902213051 | 102 | 0 | 0.0 | 1.7 | 0.00 | 0.00 | 0.00 | 35 | 1014.8 |
| 20260902211551 | 102 | 183 | 0.0 | 3.5 | 0.00 | 0.00 | 0.00 | 34 | 1014.9 |
| 20260902210047 | 101 | 0 | 0.0 | 3.5 | 0.00 | 0.00 | 0.00 | 36 | 1015.0 |
| 20260902204556 | 103 | 150 | 0.9 | 7.0 | 0.00 | 0.00 | 0.00 | 35 | 1015.1 |
| 20260902203103 | 103 | 0 | 0.9 | 3.5 | 0.00 | 0.00 | 0.00 | 36 | 1015.4 |
| 20260902201549 | 103 | 169 | 0.9 | 6.1 | 0.00 | 0.00 | 0.00 | 35 | 1015.5 |
| 20260902200056 | 101 | 93 | 0.0 | 5.2 | 0.00 | 0.00 | 0.00 | 38 | 1015.7 |
| 20260902194554 | 100 | 139 | 0.0 | 4.3 | 0.00 | 0.00 | 0.00 | 39 | 1016.0 |
| 20260902193056 | 102 | 165 | 0.0 | 3.5 | 0.00 | 0.00 | 0.00 | 37 | 1016.2 |
| 20260902191605 | 101 | 147 | 0.9 | 6.1 | 0.00 | 0.00 | 0.00 | 38 | 1016.4 |
| 20260902190056 | 102 | 218 | 0.0 | 3.5 | 0.00 | 0.00 | 0.00 | 38 | 1016.5 |
| 20260902184547 | 101 | 0 | 0.0 | 3.5 | 0.00 | 0.00 | 0.00 | 39 | 1016.7 |
| 20260902183113 | 100 | 0 | 1.7 | 6.1 | 0.00 | 0.00 | 0.00 | 39 | 1017.0 |
| 20260902181555 | 101 | 216 | 0.0 | 3.5 | 0.00 | 0.00 | 0.00 | 39 | 1017.3 |
| 20260902180049 | 100 | 0 | 0.0 | 3.5 | 0.00 | 0.00 | 0.00 | 41 | 1017.5 |
| 20260902174556 | 100 | 113 | 0.9 | 5.2 | 0.00 | 0.00 | 0.00 | 41 | 1017.7 |
| 20260902173056 | 99 | 251 | 0.0 | 2.6 | 0.00 | 0.00 | 0.00 | 45 | 1017.8 |
| 20260902171558 | 98 | 0 | 0.9 | 6.1 | 0.00 | 0.00 | 0.00 | 44 | 1018.0 |
| 20260902170057 | 97 | 266 | 0.0 | 6.1 | 0.00 | 0.00 | 0.00 | 46 | 1018.3 |
| 20260902164559 | 96 | 148 | 0.9 | 5.2 | 0.00 | 0.00 | 0.00 | 48 | 1018.3 |
| 20260902163051 | 95 | 145 | 0.0 | 6.1 | 0.00 | 0.00 | 0.00 | 49 | 1018.5 |
| 20260902161547 | 94 | 150 | 0.9 | 9.6 | 0.00 | 0.00 | 0.00 | 50 | 1018.5 |
| 20260902160055 | 94 | 188 | 1.7 | 7.8 | 0.00 | 0.00 | 0.00 | 51 | 1018.7 |
| 20260902154606 | 93 | 0 | 0.0 | 5.2 | 0.00 | 0.00 | 0.00 | 54 | 1018.7 |
| 20260902153100 | 92 | 189 | 0.9 | 5.2 | 0.00 | 0.00 | 0.00 | 55 | 1018.8 |
| 20260902151546 | 92 | 205 | 0.9 | 3.5 | 0.00 | 0.00 | 0.00 | 55 | 1018.8 |
| 20260902150044 | 91 | 152 | 0.0 | 1.7 | 0.00 | 0.00 | 0.00 | 58 | 1019.1 |
| 20260902144550 | 89 | 254 | 0.0 | 2.6 | 0.00 | 0.00 | 0.00 | 59 | 1019.0 |
| 20260902143044 | 86 | 203 | 0.0 | 4.3 | 0.00 | 0.00 | 0.00 | 63 | 1019.1 |
| 20260902141554 | 85 | 213 | 0.0 | 2.6 | 0.00 | 0.00 | 0.00 | 64 | 1018.9 |
| 20260902140053 | 84 | 117 | 0.0 | 1.7 | 0.00 | 0.00 | 0.00 | 67 | 1019.1 |
| 20260902134550 | 81 | 0 | 0.0 | 0.9 | 0.00 | 0.00 | 0.00 | 70 | 1019.1 |
| 20260902133055 | 80 | 0 | 0.0 | 0.9 | 0.00 | 0.00 | 0.00 | 72 | 1018.9 |
| 20260902131553 | 80 | 215 | 0.0 | 0.9 | 0.00 | 0.00 | 0.00 | 72 | 1018.9 |
| 20260902130051 | 80 | 165 | 0.0 | 0.9 | 0.00 | 0.00 | 0.00 | 72 | 1018.8 |
| 20260902124544 | 79 | 0 | 0.0 | 0.9 | 0.00 | 0.00 | 0.00 | 73 | 1018.6 |
| 20260902123100 | 77 | 0 | 0.0 | 1.7 | 0.00 | 0.00 | 0.00 | 77 | 1018.6 |
| 20260902121550 | 74 | 0 | 0.0 | 0.9 | 0.00 | 0.00 | 0.00 | 80 | 1018.4 |
| 20260902120053 | 73 | 0 | 0.0 | 0.0 | 0.00 | 0.00 | 0.00 | 81 | 1018.3 |
| 20260902114616 | 74 | 0 | 0.0 | 0.0 | 0.00 | 0.00 | 0.00 | 80 | 1018.1 |
| 20260902113055 | 74 | 0 | 0.0 | 0.0 | 0.00 | 0.00 | 0.00 | 79 | 1018.0 |
| 20260902111600 | 74 | 0 | 0.0 | 0.0 | 0.00 | 0.00 | 0.00 | 80 | 1017.8 |
| 20260902110055 | 74 | 0 | 0.0 | 0.0 | 0.00 | 0.00 | 0.00 | 78 | 1017.8 |
| 20260902104552 | 75 | 0 | 0.0 | 0.0 | 0.00 | 0.00 | 0.00 | 77 | 1017.7 |
| 20260902103102 | 75 | 0 | 0.0 | 0.0 | 0.00 | 0.00 | 0.00 | 77 | 1017.6 |
| 20260902101544 | 76 | 0 | 0.0 | 0.0 | 0.00 | 0.00 | 0.00 | 76 | 1017.4 |
| 20260902100105 | 76 | 0 | 0.0 | 0.0 | 0.00 | 0.00 | 0.00 | 75 | 1017.5 |
| 20260902094601 | 77 | 0 | 0.0 | 0.0 | 0.00 | 0.00 | 0.00 | 73 | 1017.4 |
| 20260902093106 | 78 | 0 | 0.0 | 0.0 | 0.00 | 0.00 | 0.00 | 72 | 1017.2 |
| 20260902091544 | 78 | 0 | 0.0 | 0.0 | 0.00 | 0.00 | 0.00 | 71 | 1017.3 |
| 20260902090050 | 78 | 0 | 0.0 | 0.9 | 0.00 | 0.00 | 0.00 | 71 | 1017.3 |
| 20260902084547 | 79 | 0 | 0.0 | 0.9 | 0.00 | 0.00 | 0.00 | 71 | 1017.4 |
| 20260902083043 | 79 | 0 | 0.0 | 0.9 | 0.00 | 0.00 | 0.00 | 70 | 1017.4 |
| 20260902081553 | 79 | 0 | 0.0 | 0.9 | 0.00 | 0.00 | 0.00 | 69 | 1017.3 |
| 20260902080050 | 80 | 0 | 0.0 | 0.9 | 0.00 | 0.00 | 0.00 | 69 | 1017.4 |